createdAt,value
2023-02-22T00:02:13.345Z,10.50
2023-02-22T00:04:41.646Z,11.30
2023-02-22T00:07:09.915Z,16.60
2023-02-22T00:09:46.944Z,10.60
2023-02-22T00:12:14.958Z,13.10
2023-02-22T00:14:43.004Z,12.40
2023-02-22T00:17:13.628Z,16.10
2023-02-22T00:19:41.911Z,19.20
2023-02-22T00:22:10.094Z,12.90
2023-02-22T00:24:38.047Z,13.80
2023-02-22T00:27:06.065Z,11.80
2023-02-22T00:29:34.728Z,12.90
2023-02-22T00:32:05.448Z,11.00
2023-02-22T00:34:36.087Z,17.80
2023-02-22T00:37:04.553Z,9.10
2023-02-22T00:39:32.947Z,11.00
2023-02-22T00:42:01.088Z,14.20
2023-02-22T00:44:30.860Z,10.90
2023-02-22T00:46:59.194Z,14.20
2023-02-22T00:49:27.120Z,19.20
2023-02-22T00:51:55.336Z,11.60
2023-02-22T00:54:23.522Z,16.70
2023-02-22T00:56:51.359Z,9.10
2023-02-22T00:59:19.406Z,13.50
2023-02-22T01:01:47.829Z,10.70
2023-02-22T01:04:23.251Z,11.00
2023-02-22T01:06:51.218Z,19.00
2023-02-22T01:09:22.077Z,8.80
2023-02-22T01:11:55.447Z,12.20
2023-02-22T01:14:27.879Z,12.60
2023-02-22T01:16:56.717Z,14.70
2023-02-22T01:19:25.373Z,19.20
2023-02-22T01:21:54.727Z,18.90
2023-02-22T01:24:25.276Z,18.50
2023-02-22T01:27:17.824Z,15.60
2023-02-22T01:32:40.088Z,16.10
2023-02-22T01:35:43.529Z,17.40
2023-02-22T01:38:37.119Z,10.50
2023-02-22T01:41:28.464Z,16.80
2023-02-22T01:44:24.897Z,14.20
2023-02-22T01:46:52.959Z,18.60
2023-02-22T01:49:21.432Z,15.10
2023-02-22T01:51:53.300Z,18.00
2023-02-22T01:54:25.161Z,10.60
2023-02-22T01:59:33.239Z,12.10
2023-02-22T02:02:07.555Z,13.70
2023-02-22T02:04:36.503Z,18.60
2023-02-22T02:07:06.384Z,25.10
2023-02-22T02:09:57.011Z,15.30
2023-02-22T02:12:26.287Z,14.40
2023-02-22T02:14:54.464Z,21.70
2023-02-22T02:17:23.561Z,15.00
2023-02-22T02:20:16.517Z,18.20
2023-02-22T02:22:49.253Z,14.60
2023-02-22T02:25:43.085Z,13.50
2023-02-22T02:28:14.260Z,26.50
2023-02-22T02:30:50.783Z,12.10
2023-02-22T02:33:38.938Z,10.80
2023-02-22T02:36:18.172Z,16.00
2023-02-22T02:38:55.649Z,14.10
2023-02-22T02:41:47.892Z,14.00
2023-02-22T02:44:20.160Z,13.70
2023-02-22T02:47:03.743Z,13.20
2023-02-22T02:49:35.900Z,13.00
2023-02-22T02:52:07.325Z,14.00
2023-02-22T02:54:37.339Z,14.60
2023-02-22T02:57:05.736Z,14.70
2023-02-22T02:59:39.307Z,15.80
2023-02-22T03:02:12.911Z,16.90
2023-02-22T03:04:54.268Z,17.20
2023-02-22T03:07:40.962Z,15.00
2023-02-22T03:10:09.162Z,11.80
2023-02-22T03:12:37.281Z,14.10
2023-02-22T03:15:14.702Z,15.50
2023-02-22T03:17:45.616Z,8.30
2023-02-22T03:20:13.751Z,15.10
2023-02-22T03:22:53.308Z,12.70
2023-02-22T03:25:43.538Z,11.90
2023-02-22T03:28:17.321Z,13.90
2023-02-22T03:30:49.101Z,12.90
2023-02-22T03:33:24.430Z,12.50
2023-02-22T03:36:01.316Z,14.30
2023-02-22T03:38:33.466Z,13.80
2023-02-22T03:41:02.464Z,12.90
2023-02-22T03:43:40.228Z,15.30
2023-02-22T03:46:12.644Z,13.00
2023-02-22T03:48:50.249Z,13.20
2023-02-22T03:51:19.034Z,14.40
2023-02-22T03:53:49.772Z,7.60
2023-02-22T03:56:21.127Z,14.50
2023-02-22T03:58:49.607Z,14.80
2023-02-22T04:01:20.080Z,16.10
2023-02-22T04:03:48.310Z,13.20
2023-02-22T04:06:17.446Z,17.80
2023-02-22T04:08:46.270Z,15.40
2023-02-22T04:11:15.093Z,14.20
2023-02-22T04:13:43.809Z,9.90
2023-02-22T04:16:12.322Z,13.50
2023-02-22T04:18:44.050Z,14.70
2023-02-22T04:21:15.081Z,14.10
2023-02-22T04:23:47.442Z,10.10
2023-02-22T04:26:15.349Z,12.60
2023-02-22T04:28:49.257Z,17.50
2023-02-22T04:31:20.187Z,17.70
2023-02-22T04:33:48.317Z,17.10
2023-02-22T04:36:22.411Z,17.10
2023-02-22T04:39:00.842Z,16.30
2023-02-22T04:41:31.622Z,15.50
2023-02-22T04:44:02.046Z,11.40
2023-02-22T04:46:33.927Z,12.60
2023-02-22T04:49:02.781Z,14.30
2023-02-22T04:51:38.744Z,12.10
2023-02-22T04:54:09.260Z,12.70
2023-02-22T04:56:39.650Z,15.50
2023-02-22T04:59:08.096Z,15.80
2023-02-22T05:01:39.062Z,14.90
2023-02-22T05:04:08.006Z,16.50
2023-02-22T05:06:36.001Z,17.10
2023-02-22T05:09:04.078Z,16.00
2023-02-22T05:11:32.409Z,18.90
2023-02-22T05:14:00.631Z,25.50
2023-02-22T05:16:28.678Z,48.70
2023-02-22T05:19:16.892Z,39.10
2023-02-22T05:21:44.943Z,97.00
2023-02-22T05:24:15.211Z,43.30
2023-02-22T05:26:46.403Z,31.40
2023-02-22T05:29:14.736Z,19.40
2023-02-22T05:31:43.052Z,10.50
2023-02-22T05:34:14.568Z,12.40
2023-02-22T05:36:48.189Z,25.10
2023-02-22T05:39:16.348Z,17.90
2023-02-22T05:41:44.360Z,18.90
2023-02-22T05:44:12.566Z,15.70
2023-02-22T05:46:40.663Z,13.10
2023-02-22T05:49:08.827Z,18.10
2023-02-22T05:51:36.654Z,14.90
2023-02-22T05:54:04.628Z,14.20
2023-02-22T05:56:32.582Z,15.30
2023-02-22T05:59:00.585Z,18.90
2023-02-22T06:01:28.498Z,14.80
2023-02-22T06:03:56.586Z,25.10
2023-02-22T06:06:33.382Z,44.50
2023-02-22T06:12:28.339Z,52.70
2023-02-22T06:14:56.468Z,45.50
2023-02-22T06:17:24.589Z,35.00
2023-02-22T06:19:54.778Z,35.00
2023-02-22T06:22:30.194Z,32.80
2023-02-22T06:24:58.186Z,24.40
2023-02-22T06:27:30.646Z,24.20
2023-02-22T06:29:59.274Z,19.60
2023-02-22T06:32:27.818Z,22.10
2023-02-22T06:34:55.871Z,27.30
2023-02-22T06:37:24.029Z,29.00
2023-02-22T06:39:55.422Z,39.60
2023-02-22T06:42:28.780Z,41.70
2023-02-22T06:45:06.157Z,34.10
2023-02-22T06:47:40.082Z,31.70
2023-02-22T06:50:09.251Z,34.40
2023-02-22T06:52:44.697Z,28.20
2023-02-22T06:55:16.177Z,31.30
2023-02-22T07:00:22.827Z,29.20
2023-02-22T07:03:11.194Z,23.80
2023-02-22T07:05:42.164Z,28.20
2023-02-22T07:08:12.505Z,25.80
2023-02-22T07:10:41.054Z,26.50
2023-02-22T07:13:11.530Z,21.10
2023-02-22T07:15:42.085Z,18.70
2023-02-22T07:18:28.956Z,19.60
2023-02-22T07:20:58.841Z,18.20
2023-02-22T07:23:27.239Z,19.10
2023-02-22T07:25:58.257Z,22.20
2023-02-22T07:28:26.285Z,26.90
2023-02-22T07:30:54.377Z,26.90
2023-02-22T07:33:22.547Z,27.60
2023-02-22T07:35:51.276Z,19.60
2023-02-22T07:38:20.585Z,24.50
2023-02-22T07:40:51.265Z,20.20
2023-02-22T07:43:20.472Z,21.00
2023-02-22T07:45:54.606Z,15.40
2023-02-22T07:48:23.666Z,16.40
2023-02-22T07:50:54.325Z,17.00
2023-02-22T07:53:24.531Z,11.10
2023-02-22T07:55:52.948Z,12.70
2023-02-22T07:58:22.415Z,37.20
2023-02-22T08:00:54.018Z,44.50
2023-02-22T08:03:26.463Z,37.30
2023-02-22T08:05:56.969Z,20.50
2023-02-22T08:08:25.115Z,14.60
2023-02-22T08:10:53.221Z,13.00
2023-02-22T08:13:22.410Z,13.50
2023-02-22T08:15:52.261Z,15.10
2023-02-22T08:18:23.084Z,13.80
2023-02-22T08:20:52.228Z,13.60
2023-02-22T08:23:22.544Z,45.30
2023-02-22T08:25:50.962Z,61.40
2023-02-22T08:28:23.602Z,23.50
2023-02-22T08:30:52.392Z,36.00
2023-02-22T08:33:20.735Z,41.20
2023-02-22T08:35:49.806Z,25.80
2023-02-22T08:38:38.456Z,21.20
2023-02-22T08:41:07.037Z,9.60
2023-02-22T08:43:35.119Z,24.30
2023-02-22T08:46:03.129Z,23.40
2023-02-22T08:48:31.112Z,28.40
2023-02-22T08:50:59.316Z,19.90
2023-02-22T08:53:32.920Z,41.10
2023-02-22T08:56:04.249Z,20.10
2023-02-22T08:58:35.225Z,34.70
2023-02-22T09:01:03.479Z,16.20
2023-02-22T09:03:52.014Z,11.80
2023-02-22T09:06:20.154Z,49.70
2023-02-22T09:08:48.489Z,35.20
2023-02-22T09:11:17.043Z,24.10
2023-02-22T09:13:45.343Z,14.30
2023-02-22T09:16:13.781Z,14.70
2023-02-22T09:18:44.344Z,31.20
2023-02-22T09:21:15.990Z,72.90
2023-02-22T09:23:46.719Z,18.40
2023-02-22T09:26:18.058Z,15.90
2023-02-22T09:28:46.297Z,14.50
2023-02-22T09:31:15.019Z,31.80
2023-02-22T09:33:47.478Z,16.80
2023-02-22T09:36:39.662Z,13.50
2023-02-22T09:39:26.439Z,14.50
2023-02-22T09:42:06.737Z,10.60
2023-02-22T09:44:48.199Z,14.40
2023-02-22T09:47:41.751Z,10.00
2023-02-22T09:50:16.559Z,12.40
2023-02-22T09:52:54.117Z,11.00
2023-02-22T09:55:34.180Z,11.90
2023-02-22T09:58:22.468Z,13.70
2023-02-22T10:00:53.956Z,11.40
2023-02-22T10:03:34.750Z,13.80
2023-02-22T10:06:10.693Z,14.60
2023-02-22T10:08:41.746Z,13.60
2023-02-22T10:11:18.610Z,14.40
2023-02-22T10:13:46.984Z,27.30
2023-02-22T10:16:21.525Z,16.00
2023-02-22T10:19:04.428Z,16.70
2023-02-22T10:21:32.491Z,17.00
2023-02-22T10:24:04.519Z,37.90
2023-02-22T10:26:34.795Z,34.70
2023-02-22T10:29:32.759Z,24.30
2023-02-22T10:32:03.527Z,24.40
2023-02-22T10:34:39.937Z,15.90
2023-02-22T10:37:26.583Z,12.70
2023-02-22T10:40:06.235Z,26.40
2023-02-22T10:42:34.090Z,33.20
2023-02-22T10:45:02.000Z,76.80
2023-02-22T10:47:30.018Z,19.60
2023-02-22T10:50:00.613Z,18.20
2023-02-22T10:52:33.966Z,15.60
2023-02-22T10:55:15.682Z,19.20
2023-02-22T10:57:49.815Z,12.90
2023-02-22T11:00:29.237Z,13.50
2023-02-22T11:03:04.792Z,26.50
2023-02-22T11:05:37.304Z,100.70
2023-02-22T11:11:29.399Z,16.10
2023-02-22T11:14:06.897Z,20.20
2023-02-22T11:16:38.517Z,21.80
2023-02-22T11:19:12.845Z,27.00
2023-02-22T11:21:47.196Z,21.00
2023-02-22T11:26:46.207Z,19.10
2023-02-22T11:29:27.641Z,14.50
2023-02-22T11:32:25.955Z,12.90
2023-02-22T11:35:08.652Z,16.50
2023-02-22T11:37:39.840Z,22.00
2023-02-22T11:40:22.634Z,19.30
2023-02-22T11:43:12.404Z,22.50
2023-02-22T11:45:58.974Z,16.10
2023-02-22T11:48:32.471Z,24.20
2023-02-22T11:51:26.360Z,16.20
2023-02-22T11:54:06.829Z,15.20
2023-02-22T11:56:45.087Z,18.30
2023-02-22T11:59:22.599Z,16.90
2023-02-22T12:01:53.712Z,16.00
2023-02-22T12:04:34.696Z,25.70
2023-02-22T12:07:02.934Z,20.10
2023-02-22T12:09:35.455Z,19.30
2023-02-22T12:12:15.927Z,15.90
2023-02-22T12:14:59.229Z,19.80
2023-02-22T12:17:31.068Z,26.60
2023-02-22T12:20:10.052Z,14.80
2023-02-22T12:22:40.343Z,23.40
2023-02-22T12:25:20.038Z,22.40
2023-02-22T12:27:56.153Z,16.30
2023-02-22T12:30:29.470Z,13.10
2023-02-22T12:33:10.465Z,17.80
2023-02-22T12:35:42.670Z,20.70
2023-02-22T12:38:23.402Z,15.70
2023-02-22T12:41:20.837Z,13.60
2023-02-22T12:43:53.766Z,18.00
2023-02-22T12:46:24.303Z,13.00
2023-02-22T12:48:57.704Z,14.90
2023-02-22T12:51:48.950Z,18.10
2023-02-22T12:54:29.580Z,12.60
2023-02-22T12:57:01.336Z,12.60
2023-02-22T12:59:32.868Z,18.30
2023-02-22T13:02:09.984Z,17.50
2023-02-22T13:04:38.142Z,13.90
2023-02-22T13:07:18.315Z,14.20
2023-02-22T13:10:00.328Z,18.90
2023-02-22T13:12:37.584Z,20.10
2023-02-22T13:15:28.791Z,14.20
2023-02-22T13:20:51.830Z,17.20
2023-02-22T13:23:20.261Z,11.50
2023-02-22T13:25:51.137Z,24.30
2023-02-22T13:31:10.882Z,20.20
2023-02-22T13:34:02.917Z,18.30
2023-02-22T13:36:43.409Z,15.40
2023-02-22T13:39:20.321Z,14.40
2023-02-22T13:41:55.281Z,13.90
2023-02-22T13:44:41.876Z,20.90
2023-02-22T13:47:24.956Z,16.40
2023-02-22T13:50:08.410Z,20.50
2023-02-22T13:52:38.961Z,18.80
2023-02-22T13:55:16.418Z,20.30
2023-02-22T13:57:49.743Z,15.90
2023-02-22T14:00:20.935Z,19.60
2023-02-22T14:03:09.038Z,16.60
2023-02-22T14:05:44.658Z,16.90
2023-02-22T14:08:22.458Z,10.80
2023-02-22T14:10:50.835Z,15.20
2023-02-22T14:13:22.470Z,17.40
2023-02-22T14:16:00.267Z,14.00
2023-02-22T14:18:35.988Z,20.80
2023-02-22T14:21:08.687Z,12.20
2023-02-22T14:23:40.769Z,13.10
2023-02-22T14:26:12.166Z,18.10
2023-02-22T14:28:43.158Z,22.30
2023-02-22T14:31:33.230Z,21.50
2023-02-22T14:34:06.125Z,25.20
2023-02-22T14:36:37.280Z,24.80
2023-02-22T14:39:08.976Z,21.30
2023-02-22T14:41:38.207Z,19.10
2023-02-22T14:44:12.995Z,19.80
2023-02-22T14:46:42.710Z,18.80
2023-02-22T14:49:16.922Z,21.30
2023-02-22T14:51:50.547Z,18.20
2023-02-22T14:54:31.887Z,19.20
2023-02-22T14:57:14.962Z,23.40
2023-02-22T14:59:48.317Z,22.40
2023-02-22T15:02:18.803Z,19.20
2023-02-22T15:04:57.011Z,23.80
2023-02-22T15:07:29.735Z,22.30
2023-02-22T15:10:17.664Z,35.60
2023-02-22T15:12:53.687Z,104.90
2023-02-22T15:15:23.385Z,138.30
2023-02-22T15:18:00.152Z,32.40
2023-02-22T15:20:38.327Z,29.50
2023-02-22T15:23:06.403Z,47.60
2023-02-22T15:25:37.651Z,60.70
2023-02-22T15:28:09.591Z,66.30
2023-02-22T15:30:40.137Z,112.10
2023-02-22T15:33:16.762Z,61.90
2023-02-22T15:35:45.116Z,46.90
2023-02-22T15:38:13.197Z,48.60
2023-02-22T15:40:43.425Z,62.50
2023-02-22T15:43:25.152Z,50.60
2023-02-22T15:45:56.575Z,38.90
2023-02-22T15:48:26.906Z,27.40
2023-02-22T15:51:07.144Z,37.80
2023-02-22T15:53:37.459Z,54.90
2023-02-22T15:56:09.190Z,32.80
2023-02-22T15:58:39.266Z,23.60
2023-02-22T16:01:09.167Z,15.40
2023-02-22T16:03:45.501Z,44.80
2023-02-22T16:06:36.137Z,18.40
2023-02-22T16:09:26.053Z,21.30
2023-02-22T16:12:10.746Z,17.60
2023-02-22T16:14:38.914Z,23.10
2023-02-22T16:17:29.724Z,25.80
2023-02-22T16:20:19.136Z,43.70
2023-02-22T16:22:51.098Z,66.90
2023-02-22T16:25:19.394Z,68.20
2023-02-22T16:27:48.936Z,93.40
2023-02-22T16:30:25.228Z,54.80
2023-02-22T16:32:57.274Z,34.10
2023-02-22T16:35:29.410Z,51.20
2023-02-22T16:38:01.860Z,66.10
2023-02-22T16:40:46.744Z,38.70
2023-02-22T16:43:17.683Z,66.80
2023-02-22T16:48:19.080Z,82.90
2023-02-22T16:50:57.479Z,63.20
2023-02-22T16:53:28.719Z,84.40
2023-02-22T16:58:32.774Z,130.50
2023-02-22T17:01:00.799Z,78.10
2023-02-22T17:03:29.628Z,84.80
2023-02-22T17:05:57.665Z,86.60
2023-02-22T17:08:25.717Z,79.20
2023-02-22T17:10:56.814Z,106.70
2023-02-22T17:13:27.325Z,88.10
2023-02-22T17:16:11.424Z,88.60
2023-02-22T17:18:39.429Z,96.00
2023-02-22T17:21:07.682Z,58.70
2023-02-22T17:23:35.520Z,87.40
2023-02-22T17:26:03.968Z,42.30
2023-02-22T17:28:32.048Z,38.10
2023-02-22T17:31:01.609Z,45.10
2023-02-22T17:33:33.042Z,42.80
2023-02-22T17:36:04.999Z,37.20
2023-02-22T17:38:34.619Z,60.90
2023-02-22T17:41:03.446Z,39.80
2023-02-22T17:43:31.955Z,46.00
2023-02-22T17:46:08.991Z,34.90
2023-02-22T17:48:50.755Z,41.80
2023-02-22T17:51:19.189Z,49.30
2023-02-22T17:54:09.397Z,31.60
2023-02-22T17:56:47.842Z,35.50
2023-02-22T17:59:15.895Z,33.40
2023-02-22T18:01:44.117Z,28.50
2023-02-22T18:04:12.350Z,32.80
2023-02-22T18:07:00.826Z,39.10
2023-02-22T18:09:29.900Z,36.90
2023-02-22T18:11:58.235Z,43.40
2023-02-22T18:14:38.494Z,45.80
2023-02-22T18:17:14.169Z,34.70
2023-02-22T18:19:42.255Z,48.50
2023-02-22T18:22:10.887Z,44.30
2023-02-22T18:24:38.939Z,43.50
2023-02-22T18:27:07.674Z,39.20
2023-02-22T18:29:35.834Z,39.70
2023-02-22T18:32:12.622Z,51.90
2023-02-22T18:34:47.023Z,46.10
2023-02-22T18:37:20.401Z,43.20
2023-02-22T18:39:59.564Z,36.10
2023-02-22T18:42:28.440Z,47.70
2023-02-22T18:45:03.320Z,49.80
2023-02-22T18:47:32.272Z,46.90
2023-02-22T18:50:00.514Z,45.40
2023-02-22T18:52:31.084Z,49.00
2023-02-22T18:55:00.156Z,39.10
2023-02-22T18:57:31.545Z,50.70
2023-02-22T18:59:59.767Z,31.90
2023-02-22T19:02:28.071Z,34.80
2023-02-22T19:04:57.796Z,37.30
2023-02-22T19:07:26.351Z,39.60
2023-02-22T19:09:54.575Z,42.00
2023-02-22T19:12:27.183Z,36.60
2023-02-22T19:14:55.441Z,36.60
2023-02-22T19:17:24.725Z,35.70
2023-02-22T19:19:56.057Z,40.00
2023-02-22T19:22:26.389Z,35.90
2023-02-22T19:24:54.932Z,66.90
2023-02-22T19:27:35.717Z,49.20
2023-02-22T19:30:04.670Z,33.00
2023-02-22T19:32:33.661Z,34.80
2023-02-22T19:35:07.038Z,31.40
2023-02-22T19:37:36.606Z,36.50
2023-02-22T19:40:09.683Z,33.20
2023-02-22T19:42:37.993Z,35.60
2023-02-22T19:45:08.839Z,55.10
2023-02-22T19:50:08.984Z,37.40
2023-02-22T19:52:39.471Z,40.70
2023-02-22T19:55:14.547Z,32.00
2023-02-22T19:57:47.332Z,27.70
2023-02-22T20:00:24.162Z,32.30
2023-02-22T20:03:05.825Z,31.00
2023-02-22T20:05:37.224Z,34.00
2023-02-22T20:10:35.655Z,25.60
2023-02-22T20:13:07.110Z,28.90
2023-02-22T20:15:35.125Z,22.10
2023-02-22T20:18:03.458Z,24.50
2023-02-22T20:20:33.613Z,24.90
2023-02-22T20:23:01.571Z,21.20
2023-02-22T20:25:29.662Z,16.90
2023-02-22T20:28:00.801Z,25.20
2023-02-22T20:32:57.032Z,22.30
2023-02-22T20:35:25.580Z,29.00
2023-02-22T20:37:53.416Z,24.30
2023-02-22T20:40:21.418Z,28.00
2023-02-22T20:42:49.572Z,31.30
2023-02-22T20:45:20.069Z,32.70
2023-02-22T20:47:50.383Z,38.80
2023-02-22T20:50:18.537Z,31.30
2023-02-22T20:52:46.613Z,37.30
2023-02-22T20:55:14.849Z,29.70
2023-02-22T20:57:42.785Z,33.30
2023-02-22T21:00:11.412Z,29.20
2023-02-22T21:02:39.431Z,26.00
2023-02-22T21:05:07.371Z,25.60
2023-02-22T21:07:35.366Z,27.00
2023-02-22T21:10:06.071Z,27.70
2023-02-22T21:12:34.885Z,24.90
2023-02-22T21:15:02.997Z,20.10
2023-02-22T21:17:30.949Z,26.70
2023-02-22T21:19:58.913Z,29.60
2023-02-22T21:22:26.981Z,24.20
2023-02-22T21:24:54.950Z,28.30
2023-02-22T21:27:23.027Z,30.70
2023-02-22T21:29:51.445Z,30.60
2023-02-22T21:32:19.871Z,34.20
2023-02-22T21:34:47.953Z,32.00
2023-02-22T21:37:18.246Z,34.70
2023-02-22T21:39:47.753Z,36.90
2023-02-22T21:42:15.864Z,37.90
2023-02-22T21:44:43.713Z,35.70
2023-02-22T21:47:11.699Z,32.80
2023-02-22T21:49:39.732Z,35.80
2023-02-22T21:52:08.165Z,40.90
2023-02-22T21:54:36.150Z,39.60
2023-02-22T21:57:06.432Z,39.70
2023-02-22T21:59:34.901Z,43.80
2023-02-22T22:02:03.025Z,48.50
2023-02-22T22:04:31.854Z,48.90
2023-02-22T22:07:14.194Z,30.80
2023-02-22T22:09:43.319Z,34.90
2023-02-22T22:12:14.389Z,37.20
2023-02-22T22:14:43.064Z,39.60
2023-02-22T22:17:11.310Z,26.40
2023-02-22T22:19:39.469Z,33.60
2023-02-22T22:22:08.020Z,37.60
2023-02-22T22:24:36.361Z,24.40
2023-02-22T22:27:06.619Z,29.60
2023-02-22T22:29:34.799Z,35.00
2023-02-22T22:32:03.581Z,31.00
2023-02-22T22:34:34.336Z,30.10
2023-02-22T22:37:03.072Z,29.10
2023-02-22T22:39:31.164Z,30.60
2023-02-22T22:41:59.187Z,30.20
2023-02-22T22:44:32.786Z,34.00
2023-02-22T22:47:01.015Z,31.80
2023-02-22T22:49:31.379Z,31.50
2023-02-22T22:51:59.608Z,29.90
2023-02-22T22:54:28.867Z,30.30
2023-02-22T22:56:59.835Z,34.90
2023-02-22T22:59:28.007Z,22.90
2023-02-22T23:01:56.699Z,30.40
2023-02-22T23:04:25.679Z,33.60
2023-02-22T23:06:54.231Z,29.00
2023-02-22T23:09:25.213Z,27.30
2023-02-22T23:12:09.063Z,26.00
2023-02-22T23:14:39.116Z,24.80
2023-02-22T23:17:14.310Z,45.30
2023-02-22T23:19:44.839Z,33.80
2023-02-22T23:22:21.248Z,33.30
2023-02-22T23:24:49.416Z,59.80
2023-02-22T23:27:19.017Z,37.10
2023-02-22T23:29:49.993Z,33.30
2023-02-22T23:32:17.957Z,38.50
2023-02-22T23:34:49.609Z,39.10
2023-02-22T23:37:20.673Z,37.50
2023-02-22T23:52:37.571Z,34.80
2023-02-22T23:55:05.927Z,37.20
2023-02-22T23:57:36.914Z,38.10
